Aeroporto :
LOGIN :

Iscrizione | Disclaimer

   EN    FR    IT 

 










Sommario :    VFR   VFR Marginale   IFR   IFR Intensivo   IFR Molto Intensivo
Visibilità : 
Base nubi : 
>= 8 km
>= 3000ft
5 / 8 km
1000 / 3000 ft
1500m / 5 km
500 / 1000 ft
800 / 1500m
200 / 500 ft
< 800m
< 200 ft
Simboli :   Temporali  Nebbia  Neve Forte  Precipitazioni Forti  Vento > 20 kt
SIGMETs :   Varie  Temporali  Ghiacco  Turbolenza  Onda orograficha  Ceneri Vulcaniche






- Altitudine del aeroporto : 1276 ft
- Codice IATA : STR


EDDS - Stuttgart

ULTIMO METAR :
  • 071850Z 22005KT 170V270 9999 -SHRA FEW010 FEW012TCU BKN036 07/05 Q1019 NOSIG

METARs OBSOLETI :
  • 071820Z 22006KT 170V260 9999 -RA FEW012 BKN033 07/05 Q1019 NOSIG
  • 071750Z 23004KT 170V270 9999 -RA FEW012 BKN031 07/05 Q1019 NOSIG
  • 071720Z 22003KT 170V260 9999 FEW012 BKN034 07/05 Q1019 NOSIG
  • 071650Z 21003KT 9999 -SHRA FEW010 FEW025TCU BKN039 07/05 Q1018 NOSIG

TAF TAF EDDS
Valido dal 07 a 18 ore il 08 a 18 ore UTC


071700Z 0718/0818 19004KT 9999 BKN030
BECMG 0808/0810 20010KT
TEMPO 0815/0818 22015G25KT RA



MetMap, La meteo Aeronautica in un colpo d'occhio ! - Copyright ORBIFLY Dicembre 2007 - Disclaimer

ORBIFLY MET'MAP TEAM :

Programmazione e sviluppo : Alexandra Zaïnal
Concezione : Baudouin d'Aumeries
Aiuto per la programmazione : Marc-Olivier Méhu
Supporto tecnico e logistico : Manuel Goepfert
Aiuto per la traduzione : Arnaldo La Scala

Contatto : metmap@orbifly.com




FONTI E CREDITI :

   NOAA